Time;durP1;ratioP1;P1;durP2;ratioP2;P2;SDS_P1;SDS_P2;PMS_P1;PMS_P2;Temp;Humidity;BMP_temperature;BMP_pressure;BME280_temperature;BME280_humidity;BME280_pressure;Samples;Min_cycle;Max_cycle;Signal;HPM_P1;HPM_P2
2023/02/12 00:00:02;;;;;;;37.17;24.50;;;;;;;7.96;100.00;102347.22;5101862;28;20460;-69
2023/02/12 00:02:28;;;;;;;38.60;26.30;;;;;;;8.04;100.00;102356.59;5093612;28;20487;-69
2023/02/12 00:04:56;;;;;;;46.17;26.97;;;;;;;8.03;100.00;102361.97;5084978;28;20437;-69
2023/02/12 00:07:23;;;;;;;46.00;25.70;;;;;;;7.99;100.00;102355.06;5102320;28;20566;-70
2023/02/12 00:09:49;;;;;;;41.23;25.73;;;;;;;7.94;100.00;102357.94;5103748;28;20469;-69
2023/02/12 00:12:16;;;;;;;40.73;27.10;;;;;;;7.90;100.00;102362.56;5095956;28;20536;-69
2023/02/12 00:14:43;;;;;;;39.17;25.83;;;;;;;7.89;100.00;102358.16;5084067;28;20455;-69
2023/02/12 00:17:10;;;;;;;40.97;25.47;;;;;;;7.83;100.00;102360.22;5084944;28;20945;-70
2023/02/12 00:19:36;;;;;;;40.13;24.70;;;;;;;7.95;100.00;102354.34;5091418;28;20464;-70
2023/02/12 00:22:04;;;;;;;46.30;24.90;;;;;;;7.97;100.00;102356.91;5082763;28;20487;-68
2023/02/12 00:24:31;;;;;;;39.73;24.80;;;;;;;7.90;100.00;102351.91;5083222;28;20483;-68
2023/02/12 00:26:58;;;;;;;38.10;25.33;;;;;;;7.78;100.00;102352.47;5082810;28;20478;-67
2023/02/12 00:29:24;;;;;;;46.40;26.00;;;;;;;7.94;100.00;102362.41;5082756;28;20445;-68
2023/02/12 00:31:51;;;;;;;39.67;24.33;;;;;;;7.97;100.00;102356.91;5083314;28;20519;-69
2023/02/12 00:34:18;;;;;;;38.83;26.67;;;;;;;7.86;100.00;102353.00;5082872;28;20466;-69
2023/02/12 00:36:44;;;;;;;35.77;23.13;;;;;;;7.93;100.00;102361.53;5083377;28;20506;-69
2023/02/12 00:39:12;;;;;;;41.90;26.00;;;;;;;7.84;100.00;102360.16;5085295;28;20448;-69
2023/02/12 00:41:39;;;;;;;43.33;25.67;;;;;;;7.86;100.00;102363.63;5085688;28;20507;-69
2023/02/12 00:44:06;;;;;;;39.13;24.43;;;;;;;7.86;100.00;102368.09;5095416;28;20445;-70
2023/02/12 00:46:32;;;;;;;40.07;27.13;;;;;;;7.85;100.00;102367.22;5093319;28;20492;-69
2023/02/12 00:48:59;;;;;;;37.13;25.00;;;;;;;7.98;100.00;102377.31;5091447;28;20490;-70
2023/02/12 00:51:25;;;;;;;40.20;25.60;;;;;;;7.92;100.00;102371.31;5087351;28;20970;-69
2023/02/12 00:53:52;;;;;;;43.87;26.30;;;;;;;7.88;100.00;102371.53;5092243;28;20513;-68
2023/02/12 00:56:20;;;;;;;42.03;26.03;;;;;;;7.94;100.00;102376.59;5099695;28;20429;-68
2023/02/12 00:58:47;;;;;;;40.30;24.10;;;;;;;7.91;100.00;102371.41;5099438;28;21001;-69
2023/02/12 01:01:13;;;;;;;42.37;26.00;;;;;;;7.69;100.00;102377.72;5082350;28;20449;-69
2023/02/12 01:03:40;;;;;;;47.77;27.30;;;;;;;7.79;100.00;102377.28;5082665;28;20473;-68
2023/02/12 01:06:07;;;;;;;45.33;26.47;;;;;;;7.88;100.00;102383.06;5082201;28;20503;-69
2023/02/12 01:08:34;;;;;;;43.27;24.47;;;;;;;7.78;100.00;102378.22;5081974;28;20671;-69
2023/02/12 01:11:03;;;;;;;45.33;24.70;;;;;;;7.94;100.00;102378.41;5082427;28;20437;-69
2023/02/12 01:13:33;;;;;;;36.67;25.70;;;;;;;7.86;100.00;102378.72;5082604;28;20464;-69
2023/02/12 01:16:05;;;;;;;42.83;26.17;;;;;;;7.96;100.00;102376.53;5082270;28;20483;-69
2023/02/12 01:18:32;;;;;;;42.10;26.07;;;;;;;7.85;100.00;102380.53;5099129;28;20510;-69
2023/02/12 01:20:58;;;;;;;35.67;23.97;;;;;;;7.83;100.00;102385.06;5092702;28;20541;-70
2023/02/12 01:23:25;;;;;;;42.40;24.80;;;;;;;7.85;100.00;102379.69;5082253;28;20458;-70
2023/02/12 01:25:52;;;;;;;42.30;27.00;;;;;;;7.83;100.00;102384.19;5082364;28;20422;-70
2023/02/12 01:28:19;;;;;;;47.63;28.43;;;;;;;7.85;100.00;102383.22;5081124;28;20473;-70
2023/02/12 01:30:47;;;;;;;42.93;25.53;;;;;;;7.92;100.00;102391.78;5083448;28;20955;-69
2023/02/12 01:33:13;;;;;;;42.70;26.40;;;;;;;7.90;100.00;102393.66;5101964;28;20468;-70
2023/02/12 01:35:40;;;;;;;41.93;26.30;;;;;;;7.96;100.00;102393.34;5088537;28;20446;-71
2023/02/12 01:38:07;;;;;;;42.20;26.73;;;;;;;7.87;100.00;102394.66;5089596;28;20694;-70
2023/02/12 01:40:33;;;;;;;42.07;26.40;;;;;;;7.87;100.00;102397.31;5100343;28;20428;-70
2023/02/12 01:43:01;;;;;;;48.67;29.70;;;;;;;7.91;100.00;102390.03;5081604;28;20448;-71
2023/02/12 01:45:45;;;;;;;41.13;25.93;;;;;;;7.94;100.00;102395.22;5097792;28;20437;-70
2023/02/12 01:48:14;;;;;;;41.50;26.87;;;;;;;7.92;100.00;102400.63;5093486;28;20452;-70
2023/02/12 01:50:42;;;;;;;46.13;29.30;;;;;;;7.95;100.00;102398.75;5081517;28;20441;-70
2023/02/12 01:53:08;;;;;;;47.80;27.60;;;;;;;7.93;100.00;102396.16;5099679;28;20452;-70
2023/02/12 01:55:35;;;;;;;43.17;27.63;;;;;;;7.94;100.00;102395.22;5089210;28;20437;-70
2023/02/12 01:58:02;;;;;;;38.40;27.30;;;;;;;7.88;100.00;102392.84;5086111;28;21119;-70
2023/02/12 02:00:29;;;;;;;46.67;26.97;;;;;;;7.88;100.00;102388.41;5095616;28;20470;-67
2023/02/12 02:02:58;;;;;;;44.30;25.33;;;;;;;7.98;100.00;102387.97;5083979;28;20513;-67
2023/02/12 02:05:33;;;;;;;43.73;27.57;;;;;;;7.93;100.00;102390.81;5086599;28;20525;-66
2023/02/12 02:08:00;;;;;;;46.67;27.83;;;;;;;7.88;100.00;102388.41;5086844;28;20473;-69
2023/02/12 02:10:26;;;;;;;43.60;26.87;;;;;;;7.86;100.00;102381.41;5098289;28;20455;-68
2023/02/12 02:15:38;;;;;;;49.73;27.60;;;;;;;7.88;100.00;102383.06;5082342;28;20484;-68
2023/02/12 02:18:08;;;;;;;45.90;28.33;;;;;;;7.89;100.00;102370.59;5080991;28;20484;-67
2023/02/12 02:21:25;;;;;;;48.50;28.37;;;;;;;7.95;100.00;102374.78;5085945;28;20906;-68
2023/02/12 02:24:24;;;;;;;45.97;27.30;;;;;;;7.86;100.00;102382.28;5033690;28;20495;-68
2023/02/12 02:27:06;;;;;;;42.03;27.50;;;;;;;7.90;100.00;102375.88;5083104;28;20535;-69
2023/02/12 02:29:50;;;;;;;45.23;26.37;;;;;;;7.86;100.00;102368.09;5080794;28;20436;-68
2023/02/12 02:32:23;;;;;;;42.83;25.90;;;;;;;7.86;100.00;102373.41;5097471;28;20480;-67
2023/02/12 02:34:54;;;;;;;41.10;25.83;;;;;;;7.92;100.00;102374.00;5094932;28;20799;-67
2023/02/12 02:37:27;;;;;;;41.33;26.10;;;;;;;7.89;100.00;102367.94;5097388;28;20497;-67
2023/02/12 02:39:55;;;;;;;44.60;26.70;;;;;;;7.86;100.00;102370.75;5087027;28;20457;-67
2023/02/12 02:42:26;;;;;;;46.50;26.40;;;;;;;7.83;100.00;102358.44;5081138;28;20477;-67
2023/02/12 02:44:55;;;;;;;46.40;28.97;;;;;;;7.83;100.00;102369.09;5081612;28;20465;-67
2023/02/12 02:47:26;;;;;;;43.73;29.07;;;;;;;7.78;100.00;102360.47;5080027;28;20539;-67
2023/02/12 02:49:56;;;;;;;44.70;25.83;;;;;;;7.76;100.00;102359.66;5070323;28;20487;-67
2023/02/12 02:52:26;;;;;;;48.70;27.47;;;;;;;7.80;100.00;102357.72;5086013;28;20476;-67
2023/02/12 02:54:56;;;;;;;45.40;27.00;;;;;;;7.87;100.00;102360.03;5097539;28;20466;-67
2023/02/12 02:57:25;;;;;;;41.93;26.13;;;;;;;7.87;100.00;102362.69;5080660;28;20526;-67
2023/02/12 02:59:55;;;;;;;42.13;26.33;;;;;;;7.84;100.00;102362.81;5095667;28;20583;-67
2023/02/12 03:02:27;;;;;;;44.30;26.07;;;;;;;7.86;100.00;102362.75;5080471;28;21224;-69
2023/02/12 03:04:55;;;;;;;42.47;27.20;;;;;;;7.81;100.00;102368.31;5085800;28;20527;-70
2023/02/12 03:07:26;;;;;;;38.77;25.37;;;;;;;7.85;100.00;102363.72;5081741;28;20484;-68
2023/02/12 03:09:56;;;;;;;40.27;26.77;;;;;;;7.76;100.00;102370.31;5092772;28;20467;-67
2023/02/12 03:12:26;;;;;;;39.57;24.10;;;;;;;7.73;100.00;102368.66;5102491;28;20497;-67
2023/02/12 03:14:56;;;;;;;44.37;26.50;;;;;;;7.78;100.00;102371.09;5095759;28;20440;-67
2023/02/12 03:17:29;;;;;;;47.90;28.07;;;;;;;7.88;100.00;102366.19;5083441;28;20483;-68
2023/02/12 03:19:58;;;;;;;46.20;28.53;;;;;;;7.80;100.00;102366.56;5084647;28;20478;-67
2023/02/12 03:22:28;;;;;;;44.87;27.10;;;;;;;7.77;100.00;102368.50;5086107;28;20504;-67
2023/02/12 03:24:59;;;;;;;45.77;26.97;;;;;;;7.87;100.00;102370.69;5105008;28;20448;-68
2023/02/12 03:27:29;;;;;;;38.80;26.80;;;;;;;7.83;100.00;102368.22;5092554;28;20508;-68
2023/02/12 03:29:57;;;;;;;46.53;27.93;;;;;;;7.72;100.00;102366.94;5084656;28;20505;-67
2023/02/12 03:32:29;;;;;;;44.63;26.47;;;;;;;7.79;100.00;102362.16;5103761;28;20477;-68
2023/02/12 03:35:09;;;;;;;48.97;28.50;;;;;;;7.84;100.00;102365.50;5093712;28;20484;-67
2023/02/12 03:37:38;;;;;;;47.07;27.33;;;;;;;7.77;100.00;102357.88;5083452;28;20465;-67
2023/02/12 03:40:08;;;;;;;43.17;26.30;;;;;;;7.76;100.00;102362.34;5104795;28;20811;-67
2023/02/12 03:42:39;;;;;;;40.53;24.30;;;;;;;7.81;100.00;102364.75;5103306;28;20490;-68
2023/02/12 03:45:10;;;;;;;42.57;26.03;;;;;;;7.77;100.00;102366.72;5104374;28;20441;-68
2023/02/12 03:47:44;;;;;;;42.63;27.80;;;;;;;7.81;100.00;102365.66;5103693;28;20512;-67
2023/02/12 03:50:15;;;;;;;40.80;27.17;;;;;;;7.81;100.00;102360.31;5062959;28;20518;-67
2023/02/12 03:52:43;;;;;;;43.03;26.73;;;;;;;7.70;100.00;102359.94;5084845;28;20482;-71
2023/02/12 03:55:10;;;;;;;45.97;28.00;;;;;;;7.70;100.00;102367.94;5103537;28;20433;-71
2023/02/12 03:57:40;;;;;;;46.00;28.27;;;;;;;7.73;100.00;102366.00;5062777;28;20489;-71
2023/02/12 04:00:10;;;;;;;42.13;27.37;;;;;;;7.67;100.00;102366.28;5076321;28;20465;-71
2023/02/12 04:02:36;;;;;;;48.57;29.40;;;;;;;7.47;100.00;102375.16;5091752;28;20479;-68
2023/02/12 04:05:06;;;;;;;39.90;26.80;;;;;;;7.65;100.00;102380.59;5104069;28;20469;-68
2023/02/12 04:07:33;;;;;;;43.93;26.73;;;;;;;7.64;100.00;102384.19;5085814;28;20488;-67
2023/02/12 04:09:59;;;;;;;45.10;28.23;;;;;;;7.68;100.00;102391.09;5084496;28;20492;-67
2023/02/12 04:12:34;;;;;;;40.97;26.17;;;;;;;7.69;100.00;102388.38;5082385;28;21042;-67
2023/02/12 04:15:12;;;;;;;53.50;29.07;;;;;;;7.71;100.00;102391.81;5083602;28;20429;-67
2023/02/12 04:17:45;;;;;;;47.90;29.10;;;;;;;7.73;100.00;102389.94;5091363;28;20530;-67
2023/02/12 04:20:21;;;;;;;55.60;28.90;;;;;;;7.66;100.00;102400.97;5100663;28;20883;-68
2023/02/12 04:22:54;;;;;;;44.80;27.80;;;;;;;7.69;100.00;102398.13;5098776;28;20509;-67
2023/02/12 04:25:27;;;;;;;47.97;29.07;;;;;;;7.71;100.00;102409.59;5102352;28;20440;-67
2023/02/12 04:27:59;;;;;;;47.23;30.00;;;;;;;7.68;100.00;102407.06;5101965;28;20562;-69
2023/02/12 04:30:29;;;;;;;46.50;27.40;;;;;;;7.73;100.00;102411.25;5102135;28;20450;-69
2023/02/12 04:32:59;;;;;;;47.87;28.93;;;;;;;7.67;100.00;102410.66;5102078;28;20480;-69
2023/02/12 04:35:31;;;;;;;50.57;29.90;;;;;;;7.70;100.00;102415.84;5102661;28;20560;-68
2023/02/12 04:38:03;;;;;;;45.23;28.37;;;;;;;7.67;100.00;102421.31;5085779;28;20507;-69
2023/02/12 04:40:30;;;;;;;46.17;28.80;;;;;;;7.69;100.00;102422.97;5090711;28;20507;-69
2023/02/12 04:42:57;;;;;;;50.00;29.30;;;;;;;7.66;100.00;102430.25;5102600;28;20483;-69
2023/02/12 04:45:26;;;;;;;47.57;30.60;;;;;;;7.76;100.00;102441.34;5102705;28;20467;-67
2023/02/12 04:47:53;;;;;;;48.23;30.07;;;;;;;7.64;100.00;102437.44;5102151;28;20539;-68
2023/02/12 04:50:20;;;;;;;55.43;29.33;;;;;;;7.62;100.00;102434.84;5101980;28;20456;-68
2023/02/12 04:52:48;;;;;;;44.40;28.07;;;;;;;7.65;100.00;102433.81;5102416;28;20491;-68
2023/02/12 04:55:15;;;;;;;50.87;28.53;;;;;;;7.58;100.00;102437.69;5084862;28;20471;-68
2023/02/12 04:57:42;;;;;;;49.83;29.53;;;;;;;7.64;100.00;102432.97;5093911;28;20453;-67
2023/02/12 05:00:13;;;;;;;55.97;30.10;;;;;;;7.71;100.00;102436.22;5102365;28;20449;-68
2023/02/12 05:02:40;;;;;;;46.33;28.23;;;;;;;7.67;100.00;102431.94;5101962;28;21103;-68
2023/02/12 05:05:07;;;;;;;47.87;27.27;;;;;;;7.62;100.00;102429.53;5102385;28;20450;-69
2023/02/12 05:07:33;;;;;;;44.53;27.10;;;;;;;7.62;100.00;102440.16;5099033;28;20550;-67
2023/02/12 05:10:01;;;;;;;47.27;28.53;;;;;;;7.66;100.00;102435.56;5081992;28;20426;-68
2023/02/12 05:12:28;;;;;;;47.80;28.13;;;;;;;7.60;100.00;102430.50;5081758;28;20482;-67
2023/02/12 05:14:54;;;;;;;46.30;29.00;;;;;;;7.59;100.00;102426.97;5082261;28;20469;-66
2023/02/12 05:17:22;;;;;;;44.47;26.23;;;;;;;7.61;100.00;102438.44;5085016;28;20530;-68
2023/02/12 05:19:48;;;;;;;45.90;29.97;;;;;;;7.56;100.00;102439.56;5102006;28;20457;-68
2023/02/12 05:22:15;;;;;;;47.93;27.90;;;;;;;7.56;100.00;102442.22;5100705;28;20506;-67
2023/02/12 05:24:42;;;;;;;45.13;28.87;;;;;;;7.50;100.00;102435.38;5092540;28;20464;-67
2023/02/12 05:27:10;;;;;;;47.73;28.97;;;;;;;7.60;100.00;102442.00;5091752;28;20509;-67
2023/02/12 05:29:37;;;;;;;49.70;28.57;;;;;;;7.51;100.00;102437.94;5086329;28;21090;-67
2023/02/12 05:32:05;;;;;;;53.40;29.97;;;;;;;7.52;100.00;102433.50;5080834;28;20514;-67
2023/02/12 05:34:32;;;;;;;43.30;27.30;;;;;;;7.48;100.00;102431.91;5081867;28;20430;-67
2023/02/12 05:36:59;;;;;;;49.80;31.43;;;;;;;7.51;100.00;102432.63;5095693;28;20519;-67
2023/02/12 05:39:25;;;;;;;44.93;27.70;;;;;;;7.57;100.00;102431.50;5083864;28;20499;-67
2023/02/12 05:41:52;;;;;;;44.67;27.07;;;;;;;7.50;100.00;102419.41;5090172;28;20491;-67
2023/02/12 05:44:20;;;;;;;44.80;27.73;;;;;;;7.46;100.00;102428.44;5102305;28;20437;-68
2023/02/12 05:46:46;;;;;;;52.60;28.50;;;;;;;7.47;100.00;102435.50;5101544;28;20504;-67
2023/02/12 05:49:13;;;;;;;51.17;28.20;;;;;;;7.48;100.00;102438.09;5094070;28;20509;-68
2023/02/12 05:51:40;;;;;;;50.60;28.87;;;;;;;7.48;100.00;102437.22;5080583;28;20496;-68
2023/02/12 05:54:07;;;;;;;45.00;27.27;;;;;;;7.46;100.00;102434.63;5081660;28;20466;-69
2023/02/12 05:56:35;;;;;;;53.60;30.67;;;;;;;7.49;100.00;102437.16;5096833;28;20832;-70
2023/02/12 05:59:03;;;;;;;47.77;29.30;;;;;;;7.47;100.00;102439.03;5099949;28;20465;-69
2023/02/12 06:01:33;;;;;;;45.83;29.37;;;;;;;7.55;100.00;102436.00;5100961;28;20506;-70
2023/02/12 06:04:01;;;;;;;54.20;29.53;;;;;;;7.40;100.00;102432.25;5088602;28;20458;-69
2023/02/12 06:06:27;;;;;;;48.40;28.17;;;;;;;7.47;100.00;102430.19;5100660;28;20507;-69
2023/02/12 06:08:54;;;;;;;43.87;26.83;;;;;;;7.37;100.00;102435.03;5100918;28;20579;-69
2023/02/12 06:11:21;;;;;;;41.40;25.83;;;;;;;7.39;100.00;102433.16;5088430;28;20539;-69
2023/02/12 06:13:48;;;;;;;48.10;27.00;;;;;;;7.39;100.00;102433.16;5081104;28;20476;-69
2023/02/12 06:16:19;;;;;;;47.13;27.17;;;;;;;7.51;100.00;102429.97;5081018;28;20468;-69
2023/02/12 06:18:48;;;;;;;47.77;27.67;;;;;;;7.46;100.00;102436.44;5061093;28;20489;-68
2023/02/12 06:21:15;;;;;;;44.80;25.70;;;;;;;7.43;100.00;102434.78;5073050;28;20952;-68
2023/02/12 06:23:42;;;;;;;40.53;26.03;;;;;;;7.38;100.00;102438.53;5088915;28;20479;-67
2023/02/12 06:26:08;;;;;;;41.10;26.73;;;;;;;7.44;100.00;102443.63;5100847;28;20844;-69
2023/02/12 06:28:35;;;;;;;44.23;26.93;;;;;;;7.41;100.00;102433.94;5094297;28;20532;-68
2023/02/12 06:31:02;;;;;;;47.30;28.83;;;;;;;7.24;100.00;102439.13;5097377;28;20929;-67
2023/02/12 06:33:29;;;;;;;44.20;25.80;;;;;;;7.35;100.00;102436.91;5081562;28;21005;-67
2023/02/12 06:35:57;;;;;;;43.50;26.80;;;;;;;7.41;100.00;102433.09;5080609;28;20496;-66
2023/02/12 06:38:23;;;;;;;42.77;26.90;;;;;;;7.38;100.00;102435.88;5080823;28;20536;-68
2023/02/12 06:40:50;;;;;;;44.07;28.33;;;;;;;7.38;100.00;102441.22;5088492;28;20483;-67
2023/02/12 06:43:17;;;;;;;40.90;28.17;;;;;;;7.29;100.00;102448.69;5090067;28;20458;-68
2023/02/12 06:45:44;;;;;;;39.97;26.10;;;;;;;7.35;100.00;102442.22;5084012;28;20469;-69
2023/02/12 06:48:10;;;;;;;38.53;25.80;;;;;;;7.37;100.00;102452.81;5085271;28;20504;-68
2023/02/12 06:50:37;;;;;;;42.20;25.73;;;;;;;7.42;100.00;102445.50;5083538;28;20480;-67
2023/02/12 06:53:05;;;;;;;43.77;26.70;;;;;;;7.42;100.00;102449.00;5084812;28;20535;-68
2023/02/12 06:55:31;;;;;;;43.87;27.53;;;;;;;7.40;100.00;102463.31;5086613;28;20495;-69
2023/02/12 06:57:58;;;;;;;50.80;28.50;;;;;;;7.46;100.00;102461.22;5086565;28;20464;-68
2023/02/12 07:00:25;;;;;;;49.33;28.60;;;;;;;7.38;100.00;102462.50;5085877;28;20448;-68
2023/02/12 07:02:55;;;;;;;52.60;29.83;;;;;;;7.42;100.00;102464.97;5087172;28;20957;-68
2023/02/12 07:05:22;;;;;;;49.93;30.07;;;;;;;7.45;100.00;102462.19;5086819;28;20440;-68
2023/02/12 07:07:49;;;;;;;52.00;30.03;;;;;;;7.38;100.00;102467.81;5083094;28;20523;-69
2023/02/12 07:10:17;;;;;;;51.50;30.23;;;;;;;7.26;100.00;102477.22;5085998;28;20509;-68
2023/02/12 07:12:44;;;;;;;57.60;32.00;;;;;;;7.30;100.00;102476.13;5083880;28;20457;-68
2023/02/12 07:15:11;;;;;;;55.63;31.73;;;;;;;7.33;100.00;102476.88;5083917;28;20463;-68
2023/02/12 07:17:38;;;;;;;57.40;32.00;;;;;;;7.41;100.00;102478.34;5083702;28;20472;-68
2023/02/12 07:20:06;;;;;;;54.93;30.20;;;;;;;7.46;100.00;102482.53;5093979;28;20523;-68
2023/02/12 07:22:35;;;;;;;61.90;31.77;;;;;;;7.44;100.00;102488.88;5074070;28;20462;-68
2023/02/12 07:25:02;;;;;;;63.13;32.73;;;;;;;7.48;100.00;102487.78;5092478;28;20445;-71
2023/02/12 07:27:30;;;;;;;59.90;32.63;;;;;;;7.61;100.00;102498.78;5089770;28;20831;-71
2023/02/12 07:29:57;;;;;;;58.13;33.63;;;;;;;7.50;100.00;102494.78;5104004;28;20484;-71
2023/02/12 07:32:23;;;;;;;58.97;33.73;;;;;;;7.34;100.00;102501.69;5097741;28;20471;-71
2023/02/12 07:34:50;;;;;;;56.33;32.17;;;;;;;7.51;100.00;102504.50;5102451;28;20432;-71
2023/02/12 07:37:21;;;;;;;61.30;32.57;;;;;;;7.46;100.00;102516.28;5097118;28;20486;-71
2023/02/12 07:39:48;;;;;;;68.37;34.00;;;;;;;7.60;100.00;102510.38;5103475;28;20527;-71
2023/02/12 07:42:14;;;;;;;55.50;33.10;;;;;;;7.55;100.00;102510.53;5103410;28;20556;-71
2023/02/12 07:44:42;;;;;;;56.93;34.67;;;;;;;7.67;100.00;102509.16;5087494;28;20447;-71
2023/02/12 07:47:09;;;;;;;58.13;33.67;;;;;;;7.67;100.00;102517.16;5087367;28;20506;-71
2023/02/12 07:49:36;;;;;;;61.87;31.43;;;;;;;7.74;100.00;102518.63;5086139;28;20553;-72
2023/02/12 07:52:02;;;;;;;54.10;34.20;;;;;;;7.78;100.00;102520.22;5085098;28;20481;-71
2023/02/12 07:54:29;;;;;;;52.30;31.50;;;;;;;7.75;100.00;102519.50;5083956;28;20450;-72
2023/02/12 07:56:56;;;;;;;59.60;33.23;;;;;;;7.69;100.00;102516.16;5099556;28;20516;-72
2023/02/12 07:59:22;;;;;;;58.13;33.13;;;;;;;7.59;100.00;102529.94;5096205;28;20490;-72
2023/02/12 08:01:52;;;;;;;61.97;34.50;;;;;;;7.81;100.00;102521.88;5093424;28;20504;-72
2023/02/12 08:04:20;;;;;;;55.40;32.77;;;;;;;7.79;100.00;102518.44;5087883;28;20449;-72
2023/02/12 08:06:49;;;;;;;71.57;33.77;;;;;;;7.77;100.00;102520.28;5098166;28;20504;-71
2023/02/12 08:09:18;;;;;;;56.30;32.77;;;;;;;7.67;100.00;102519.81;5075068;28;20827;-71
2023/02/12 08:11:45;;;;;;;55.50;33.50;;;;;;;7.74;100.00;102523.94;5083823;28;20501;-72
2023/02/12 08:14:13;;;;;;;58.80;32.23;;;;;;;7.66;100.00;102529.59;5082766;28;20553;-71
2023/02/12 08:16:41;;;;;;;57.70;31.23;;;;;;;7.78;100.00;102524.66;5089189;28;20471;-71
2023/02/12 08:19:09;;;;;;;59.47;32.10;;;;;;;7.77;100.00;102526.47;5095825;28;20467;-71
2023/02/12 08:21:36;;;;;;;52.97;31.37;;;;;;;7.84;100.00;102530.59;5089934;28;20517;-71
2023/02/12 08:24:03;;;;;;;55.33;32.80;;;;;;;7.60;100.00;102545.81;5089599;28;20468;-70
2023/02/12 08:26:31;;;;;;;56.50;33.57;;;;;;;7.80;100.00;102544.13;5098648;28;20463;-70
2023/02/12 08:29:01;;;;;;;52.37;32.50;;;;;;;7.82;100.00;102540.47;5102354;28;20488;-70
2023/02/12 08:31:30;;;;;;;51.17;30.17;;;;;;;7.76;100.00;102545.19;5095023;28;20469;-70
2023/02/12 08:33:57;;;;;;;55.40;32.43;;;;;;;7.80;100.00;102549.47;5094200;28;20470;-70
2023/02/12 08:36:27;;;;;;;55.57;30.97;;;;;;;7.82;100.00;102544.94;5097679;28;20469;-70
2023/02/12 08:38:54;;;;;;;51.73;30.13;;;;;;;7.90;100.00;102554.31;5098281;28;20444;-71
2023/02/12 08:41:23;;;;;;;56.50;33.57;;;;;;;7.83;100.00;102555.53;5088947;28;20484;-70
2023/02/12 08:43:52;;;;;;;51.87;30.80;;;;;;;7.99;100.00;102560.19;5102203;28;20496;-71
2023/02/12 08:46:22;;;;;;;52.90;32.33;;;;;;;7.99;100.00;102560.19;5102464;28;20474;-70
2023/02/12 08:48:49;;;;;;;51.57;31.43;;;;;;;8.10;100.00;102555.25;5100310;28;20483;-70
2023/02/12 08:51:18;;;;;;;51.50;30.20;;;;;;;8.05;100.00;102558.09;5082125;28;20500;-70
2023/02/12 08:53:47;;;;;;;51.17;29.60;;;;;;;7.97;100.00;102562.03;5087643;28;20468;-68
2023/02/12 08:56:16;;;;;;;47.57;29.87;;;;;;;7.94;100.00;102571.03;5091265;28;20493;-68
2023/02/12 08:58:43;;;;;;;52.40;31.87;;;;;;;7.94;100.00;102564.84;5098443;28;20450;-67
2023/02/12 09:01:11;;;;;;;53.87;31.30;;;;;;;7.91;100.00;102565.81;5081429;28;20458;-68
2023/02/12 09:03:38;;;;;;;55.90;32.03;;;;;;;7.99;100.00;102569.03;5084111;28;20450;-67
2023/02/12 09:06:06;;;;;;;51.13;30.40;;;;;;;8.02;100.00;102568.03;5085210;28;20566;-68
2023/02/12 09:08:33;;;;;;;55.20;28.63;;;;;;;7.98;100.00;102566.44;5084413;28;20489;-68
2023/02/12 09:11:04;;;;;;;58.87;33.27;;;;;;;8.01;100.00;102566.31;5081180;28;20474;-68
2023/02/12 09:13:31;;;;;;;50.00;29.30;;;;;;;7.82;100.00;102575.06;5080227;28;20999;-68
2023/02/12 09:16:00;;;;;;;53.13;33.00;;;;;;;7.91;100.00;102581.81;5090207;28;20532;-67
2023/02/12 09:18:27;;;;;;;64.27;33.37;;;;;;;7.98;100.00;102580.59;5088230;28;20453;-67
2023/02/12 09:20:55;;;;;;;65.33;32.97;;;;;;;8.23;100.00;102579.56;5083294;28;20507;-70
2023/02/12 09:23:21;;;;;;;61.37;34.07;;;;;;;8.15;100.00;102582.53;5088512;28;20504;-67
2023/02/12 09:25:48;;;;;;;68.07;35.47;;;;;;;8.31;100.00;102585.38;5091635;28;20500;-79
2023/02/12 09:28:16;;;;;;;58.33;33.23;;;;;;;8.35;100.00;102580.78;5092181;28;20512;-69
2023/02/12 09:30:43;;;;;;;63.23;33.70;;;;;;;8.07;100.00;102582.00;5084216;28;20466;-70
2023/02/12 09:33:10;;;;;;;57.03;32.40;;;;;;;8.36;100.00;102591.38;5092769;28;20506;-70
2023/02/12 09:35:38;;;;;;;57.13;33.23;;;;;;;8.38;100.00;102583.31;5088161;28;20466;-74
2023/02/12 09:38:06;;;;;;;64.63;34.37;;;;;;;8.44;100.00;102585.75;5085203;28;20487;-68
2023/02/12 09:40:37;;;;;;;58.77;33.67;;;;;;;8.69;100.00;102592.63;5086528;28;20466;-68
2023/02/12 09:43:10;;;;;;;67.70;32.97;;;;;;;8.78;100.00;102589.53;5088058;28;20454;-72
2023/02/12 09:45:42;;;;;;;71.43;36.47;;;;;;;8.38;100.00;102584.19;5085646;28;20486;-68
2023/02/12 09:48:30;;;;;;;60.30;33.13;;;;;;;8.65;100.00;102592.75;5086981;28;20480;-68
2023/02/12 09:50:59;;;;;;;63.53;32.90;;;;;;;8.85;100.00;102594.53;5089327;28;20494;-68
2023/02/12 09:53:29;;;;;;;58.20;32.37;;;;;;;8.91;100.00;102587.16;5090411;28;20828;-68
2023/02/12 09:55:55;;;;;;;70.83;34.17;;;;;;;8.75;100.00;102598.56;5089102;28;20521;-68
2023/02/12 09:58:30;;;;;;;58.53;34.70;;;;;;;8.80;100.00;102593.88;5094553;28;20447;-68
2023/02/12 10:00:58;;;;;;;56.53;34.17;;;;;;;8.98;100.00;102599.28;5092197;28;20544;-68
2023/02/12 10:03:26;;;;;;;61.90;35.10;;;;;;;8.94;100.00;102598.56;5086561;28;20455;-68
2023/02/12 10:05:58;;;;;;;51.10;31.63;;;;;;;8.92;100.00;102597.75;5090337;28;21188;-70
2023/02/12 10:08:40;;;;;;;58.03;33.57;;;;;;;8.81;100.00;102592.91;5087068;28;20545;-68
2023/02/12 10:11:17;;;;;;;55.43;31.90;;;;;;;9.08;100.00;102597.91;5091565;28;20515;-68
2023/02/12 10:13:52;;;;;;;53.80;31.37;;;;;;;8.88;100.00;102595.31;5090796;28;20482;-69
2023/02/12 10:16:29;;;;;;;56.70;31.07;;;;;;;9.16;100.00;102594.84;5090122;28;20472;-68
2023/02/12 10:19:06;;;;;;;61.70;32.27;;;;;;;9.43;100.00;102598.84;5089811;28;20452;-68
2023/02/12 10:21:45;;;;;;;56.53;28.63;;;;;;;9.55;100.00;102601.88;5088720;28;20478;-68
2023/02/12 10:24:31;;;;;;;56.20;28.90;;;;;;;9.37;100.00;102599.19;5090385;28;20454;-68
2023/02/12 10:26:59;;;;;;;49.90;29.80;;;;;;;9.51;100.00;102592.28;5086742;28;20497;-69
2023/02/12 10:29:29;;;;;;;49.33;30.50;;;;;;;9.51;100.00;102592.28;5088530;28;20491;-69
2023/02/12 10:32:00;;;;;;;41.90;26.27;;;;;;;9.33;100.00;102588.72;5090779;28;20965;-68
2023/02/12 10:34:31;;;;;;;49.80;25.97;;;;;;;9.26;100.00;102593.47;5091523;28;20526;-69
2023/02/12 10:37:03;;;;;;;37.80;24.00;;;;;;;9.12;100.00;102603.97;5092636;28;20504;-68
2023/02/12 10:39:32;;;;;;;44.80;24.07;;;;;;;9.15;100.00;102595.78;5086288;28;20535;-68
2023/02/12 10:42:02;;;;;;;44.50;24.90;;;;;;;9.07;100.00;102598.84;5081880;28;20996;-67
2023/02/12 10:44:29;;;;;;;36.67;22.97;;;;;;;9.20;100.00;102601.78;5092438;28;20477;-67
2023/02/12 10:46:57;;;;;;;40.77;23.43;;;;;;;9.23;100.00;102598.97;5084795;28;20509;-67
2023/02/12 10:49:24;;;;;;;37.90;22.27;;;;;;;9.13;100.00;102595.88;5093591;28;21022;-68
2023/02/12 10:52:13;;;;;;;40.90;23.03;;;;;;;9.21;100.00;102595.50;5083533;28;20952;-67
2023/02/12 10:54:42;;;;;;;46.17;25.47;;;;;;;9.48;100.00;102592.41;5088752;28;20463;-68
2023/02/12 10:57:15;;;;;;;38.43;22.90;;;;;;;9.62;100.00;102595.28;5081888;28;20536;-68
2023/02/12 10:59:43;;;;;;;38.83;22.40;;;;;;;9.74;100.00;102589.31;5088632;28;20482;-69
2023/02/12 11:02:23;;;;;;;41.93;24.67;;;;;;;9.84;100.00;102583.50;5065694;28;20513;-68
2023/02/12 11:04:51;;;;;;;37.50;22.77;;;;;;;9.85;100.00;102577.22;5085847;28;20506;-66
2023/02/12 11:07:18;;;;;;;43.47;23.40;;;;;;;9.74;100.00;102577.78;5082567;28;20478;-68
2023/02/12 11:09:45;;;;;;;36.93;22.93;;;;;;;9.66;100.00;102587.97;5082441;28;20490;-66
2023/02/12 11:12:21;;;;;;;31.93;21.37;;;;;;;10.07;100.00;102583.19;5079363;28;20467;-67
2023/02/12 11:14:52;;;;;;;36.90;21.13;;;;;;;10.15;100.00;102580.09;5096984;28;20473;-67
2023/02/12 11:17:25;;;;;;;33.33;20.97;;;;;;;10.09;100.00;102581.31;5078496;28;20470;-68
2023/02/12 11:20:03;;;;;;;34.67;21.83;;;;;;;9.38;100.00;102578.66;5077312;28;20501;-68